Terminal Aerodrome Forecast
Issued by NWS

Home | Current Version | Previous Version | Text Only | Print | Product List | Glossary On
Versions: 1 2 3 4 5 6 7 8 9 10 11 12
000
FTUS45 KPSR 271720
TAFSDL
TAF
KSDL 271720Z 2718/2818 12005KT P6SM BKN250
     FM272100 24010KT P6SM BKN250
     FM280500 VRB05KT P6SM BKN250
     FM281600 28008KT P6SM FEW250=

USA.gov is the U.S. government's official web portal to all federal, state and local government web resources and services.